Terminal Aerodrome Forecast
Issued by NWS

Home | Current Version | Previous Version | Text Only | Print | Product List | Glossary On
Versions: 1 2 3 4 5 6 7 8 9 10 11 12 13 14 15 16 17
000
FTUS44 KMAF 230218 AAA
TAFHOB
TAF AMD
KHOB 230218Z 2302/2324 VRB06KT P6SM SCT080 BKN150
      TEMPO 2302/2305 VRB20G30KT 5SM TSRA BKN050CB
     FM231000 02010KT P6SM SCT020
      TEMPO 2310/2312 BKN015=

USA.gov is the U.S. government's official web portal to all federal, state and local government web resources and services.